sensor_id;sensor_type;location;lat;lon;timestamp;P1;durP1;ratioP1;P2;durP2;ratioP2
16813;SDS011;8524;57.650;11.926;2023-04-25T00:01:50;14.13;;;12.83;;
16813;SDS011;8524;57.650;11.926;2023-04-25T00:04:17;13.40;;;12.10;;
16813;SDS011;8524;57.650;11.926;2023-04-25T00:06:46;14.27;;;12.77;;
16813;SDS011;8524;57.650;11.926;2023-04-25T00:09:13;14.63;;;13.23;;
16813;SDS011;8524;57.650;11.926;2023-04-25T00:11:40;13.83;;;12.43;;
16813;SDS011;8524;57.650;11.926;2023-04-25T00:14:07;14.87;;;13.33;;
16813;SDS011;8524;57.650;11.926;2023-04-25T00:16:35;15.10;;;13.60;;
16813;SDS011;8524;57.650;11.926;2023-04-25T00:19:03;13.87;;;12.57;;
16813;SDS011;8524;57.650;11.926;2023-04-25T00:21:30;14.90;;;13.10;;
16813;SDS011;8524;57.650;11.926;2023-04-25T00:23:57;15.63;;;14.03;;
16813;SDS011;8524;57.650;11.926;2023-04-25T00:26:24;18.73;;;15.23;;
16813;SDS011;8524;57.650;11.926;2023-04-25T00:28:51;15.53;;;13.93;;
16813;SDS011;8524;57.650;11.926;2023-04-25T00:31:18;17.60;;;14.90;;
16813;SDS011;8524;57.650;11.926;2023-04-25T00:33:45;17.23;;;15.53;;
16813;SDS011;8524;57.650;11.926;2023-04-25T00:36:14;15.07;;;13.47;;
16813;SDS011;8524;57.650;11.926;2023-04-25T00:38:42;17.57;;;15.67;;
16813;SDS011;8524;57.650;11.926;2023-04-25T00:41:09;17.80;;;16.00;;
16813;SDS011;8524;57.650;11.926;2023-04-25T00:43:36;17.83;;;16.00;;
16813;SDS011;8524;57.650;11.926;2023-04-25T00:46:03;15.90;;;14.30;;
16813;SDS011;8524;57.650;11.926;2023-04-25T00:48:31;17.17;;;15.37;;
16813;SDS011;8524;57.650;11.926;2023-04-25T00:50:58;17.47;;;14.93;;
16813;SDS011;8524;57.650;11.926;2023-04-25T00:53:27;17.07;;;15.27;;
16813;SDS011;8524;57.650;11.926;2023-04-25T00:55:54;18.93;;;16.90;;
16813;SDS011;8524;57.650;11.926;2023-04-25T00:58:22;18.97;;;16.67;;
16813;SDS011;8524;57.650;11.926;2023-04-25T01:00:50;19.37;;;17.00;;
16813;SDS011;8524;57.650;11.926;2023-04-25T01:03:18;17.97;;;16.07;;
16813;SDS011;8524;57.650;11.926;2023-04-25T01:05:45;21.05;;;19.05;;
16813;SDS011;8524;57.650;11.926;2023-04-25T01:08:13;18.67;;;16.77;;
16813;SDS011;8524;57.650;11.926;2023-04-25T01:10:42;18.67;;;16.70;;
16813;SDS011;8524;57.650;11.926;2023-04-25T01:13:09;17.50;;;15.70;;
16813;SDS011;8524;57.650;11.926;2023-04-25T01:15:36;15.27;;;13.70;;
16813;SDS011;8524;57.650;11.926;2023-04-25T01:18:03;19.47;;;17.03;;
16813;SDS011;8524;57.650;11.926;2023-04-25T01:20:31;17.17;;;15.37;;
16813;SDS011;8524;57.650;11.926;2023-04-25T01:23:01;18.23;;;16.33;;
16813;SDS011;8524;57.650;11.926;2023-04-25T01:25:28;16.60;;;14.90;;
16813;SDS011;8524;57.650;11.926;2023-04-25T01:27:56;18.70;;;15.57;;
16813;SDS011;8524;57.650;11.926;2023-04-25T01:30:24;16.53;;;14.90;;
16813;SDS011;8524;57.650;11.926;2023-04-25T01:32:52;16.47;;;14.77;;
16813;SDS011;8524;57.650;11.926;2023-04-25T01:35:21;16.07;;;14.33;;
16813;SDS011;8524;57.650;11.926;2023-04-25T01:37:50;19.77;;;17.67;;
16813;SDS011;8524;57.650;11.926;2023-04-25T01:40:19;16.40;;;14.47;;
16813;SDS011;8524;57.650;11.926;2023-04-25T01:42:48;16.60;;;14.80;;
16813;SDS011;8524;57.650;11.926;2023-04-25T01:45:15;16.57;;;14.87;;
16813;SDS011;8524;57.650;11.926;2023-04-25T01:47:43;18.97;;;16.97;;
16813;SDS011;8524;57.650;11.926;2023-04-25T01:50:14;17.73;;;15.67;;
16813;SDS011;8524;57.650;11.926;2023-04-25T01:52:42;16.50;;;14.80;;
16813;SDS011;8524;57.650;11.926;2023-04-25T01:55:09;17.30;;;14.90;;
16813;SDS011;8524;57.650;11.926;2023-04-25T01:57:38;16.37;;;14.70;;
16813;SDS011;8524;57.650;11.926;2023-04-25T02:00:06;13.87;;;12.57;;
16813;SDS011;8524;57.650;11.926;2023-04-25T02:02:34;15.00;;;13.50;;
16813;SDS011;8524;57.650;11.926;2023-04-25T02:05:01;14.50;;;13.00;;
16813;SDS011;8524;57.650;11.926;2023-04-25T02:07:28;16.23;;;14.57;;
16813;SDS011;8524;57.650;11.926;2023-04-25T02:09:55;14.63;;;12.80;;
16813;SDS011;8524;57.650;11.926;2023-04-25T02:12:22;14.83;;;13.33;;
16813;SDS011;8524;57.650;11.926;2023-04-25T02:14:52;14.10;;;12.70;;
16813;SDS011;8524;57.650;11.926;2023-04-25T02:17:19;16.33;;;14.63;;
16813;SDS011;8524;57.650;11.926;2023-04-25T02:19:47;13.33;;;11.87;;
16813;SDS011;8524;57.650;11.926;2023-04-25T02:22:14;12.70;;;11.50;;
16813;SDS011;8524;57.650;11.926;2023-04-25T02:24:41;13.30;;;12.00;;
16813;SDS011;8524;57.650;11.926;2023-04-25T02:27:08;11.33;;;10.23;;
16813;SDS011;8524;57.650;11.926;2023-04-25T02:29:35;15.53;;;13.83;;
16813;SDS011;8524;57.650;11.926;2023-04-25T02:32:03;12.83;;;11.53;;
16813;SDS011;8524;57.650;11.926;2023-04-25T02:34:30;12.07;;;10.87;;
16813;SDS011;8524;57.650;11.926;2023-04-25T02:36:57;14.97;;;13.47;;
16813;SDS011;8524;57.650;11.926;2023-04-25T02:39:24;14.63;;;13.13;;
16813;SDS011;8524;57.650;11.926;2023-04-25T02:41:52;13.50;;;12.20;;
16813;SDS011;8524;57.650;11.926;2023-04-25T02:44:19;13.57;;;12.38;;
16813;SDS011;8524;57.650;11.926;2023-04-25T02:46:46;14.17;;;12.87;;
16813;SDS011;8524;57.650;11.926;2023-04-25T02:49:14;12.40;;;11.10;;
16813;SDS011;8524;57.650;11.926;2023-04-25T02:51:41;12.37;;;10.83;;
16813;SDS011;8524;57.650;11.926;2023-04-25T02:54:09;14.37;;;12.63;;
16813;SDS011;8524;57.650;11.926;2023-04-25T02:56:35;14.67;;;12.70;;
16813;SDS011;8524;57.650;11.926;2023-04-25T02:59:02;14.10;;;12.70;;
16813;SDS011;8524;57.650;11.926;2023-04-25T03:01:30;16.40;;;14.67;;
16813;SDS011;8524;57.650;11.926;2023-04-25T03:03:57;14.60;;;13.10;;
16813;SDS011;8524;57.650;11.926;2023-04-25T03:06:25;15.90;;;14.30;;
16813;SDS011;8524;57.650;11.926;2023-04-25T03:08:52;15.33;;;13.73;;
16813;SDS011;8524;57.650;11.926;2023-04-25T03:11:19;13.53;;;12.13;;
16813;SDS011;8524;57.650;11.926;2023-04-25T03:13:46;14.00;;;12.60;;
16813;SDS011;8524;57.650;11.926;2023-04-25T03:16:13;13.43;;;11.63;;
16813;SDS011;8524;57.650;11.926;2023-04-25T03:18:40;11.93;;;10.73;;
16813;SDS011;8524;57.650;11.926;2023-04-25T03:21:07;11.27;;;10.17;;
16813;SDS011;8524;57.650;11.926;2023-04-25T03:23:36;12.47;;;11.27;;
16813;SDS011;8524;57.650;11.926;2023-04-25T03:26:03;10.43;;;9.43;;
16813;SDS011;8524;57.650;11.926;2023-04-25T03:28:30;12.43;;;11.23;;
16813;SDS011;8524;57.650;11.926;2023-04-25T03:30:57;13.47;;;12.07;;
16813;SDS011;8524;57.650;11.926;2023-04-25T03:33:24;10.77;;;9.67;;
16813;SDS011;8524;57.650;11.926;2023-04-25T03:35:51;12.17;;;10.97;;
16813;SDS011;8524;57.650;11.926;2023-04-25T03:38:18;11.97;;;10.67;;
16813;SDS011;8524;57.650;11.926;2023-04-25T03:40:46;12.30;;;11.07;;
16813;SDS011;8524;57.650;11.926;2023-04-25T03:43:13;11.83;;;10.73;;
16813;SDS011;8524;57.650;11.926;2023-04-25T03:45:40;12.37;;;11.07;;
16813;SDS011;8524;57.650;11.926;2023-04-25T03:48:07;12.83;;;11.53;;
16813;SDS011;8524;57.650;11.926;2023-04-25T03:50:34;17.07;;;15.30;;
16813;SDS011;8524;57.650;11.926;2023-04-25T03:53:02;14.63;;;13.13;;
16813;SDS011;8524;57.650;11.926;2023-04-25T03:55:28;16.10;;;14.10;;
16813;SDS011;8524;57.650;11.926;2023-04-25T03:57:57;16.57;;;14.57;;
16813;SDS011;8524;57.650;11.926;2023-04-25T04:00:25;14.73;;;13.13;;
16813;SDS011;8524;57.650;11.926;2023-04-25T04:02:52;18.57;;;15.90;;
16813;SDS011;8524;57.650;11.926;2023-04-25T04:05:20;17.63;;;13.57;;
16813;SDS011;8524;57.650;11.926;2023-04-25T04:07:47;14.33;;;12.80;;
16813;SDS011;8524;57.650;11.926;2023-04-25T04:10:14;16.60;;;12.77;;
16813;SDS011;8524;57.650;11.926;2023-04-25T04:12:41;14.00;;;12.10;;
16813;SDS011;8524;57.650;11.926;2023-04-25T04:15:10;13.90;;;11.60;;
16813;SDS011;8524;57.650;11.926;2023-04-25T04:17:38;12.33;;;10.60;;
16813;SDS011;8524;57.650;11.926;2023-04-25T04:20:06;12.63;;;11.00;;
16813;SDS011;8524;57.650;11.926;2023-04-25T04:22:33;11.70;;;9.43;;
16813;SDS011;8524;57.650;11.926;2023-04-25T04:25:01;9.97;;;8.97;;
16813;SDS011;8524;57.650;11.926;2023-04-25T04:27:30;8.87;;;7.90;;
16813;SDS011;8524;57.650;11.926;2023-04-25T04:29:58;10.90;;;8.07;;
16813;SDS011;8524;57.650;11.926;2023-04-25T04:32:26;8.93;;;7.50;;
16813;SDS011;8524;57.650;11.926;2023-04-25T04:34:55;7.43;;;6.50;;
16813;SDS011;8524;57.650;11.926;2023-04-25T04:37:23;7.67;;;6.47;;
16813;SDS011;8524;57.650;11.926;2023-04-25T04:39:50;8.43;;;7.40;;
16813;SDS011;8524;57.650;11.926;2023-04-25T04:42:17;7.80;;;6.70;;
16813;SDS011;8524;57.650;11.926;2023-04-25T04:44:44;7.37;;;6.43;;
16813;SDS011;8524;57.650;11.926;2023-04-25T04:47:11;10.93;;;7.33;;
16813;SDS011;8524;57.650;11.926;2023-04-25T04:49:40;8.03;;;6.70;;
16813;SDS011;8524;57.650;11.926;2023-04-25T04:52:07;8.77;;;7.13;;
16813;SDS011;8524;57.650;11.926;2023-04-25T04:54:34;9.77;;;7.07;;
16813;SDS011;8524;57.650;11.926;2023-04-25T04:57:01;6.63;;;5.63;;
16813;SDS011;8524;57.650;11.926;2023-04-25T04:59:28;7.07;;;5.73;;
16813;SDS011;8524;57.650;11.926;2023-04-25T05:01:55;7.20;;;5.80;;
16813;SDS011;8524;57.650;11.926;2023-04-25T05:04:22;8.40;;;6.30;;
16813;SDS011;8524;57.650;11.926;2023-04-25T05:06:51;8.00;;;5.67;;
16813;SDS011;8524;57.650;11.926;2023-04-25T05:09:18;6.40;;;5.40;;
16813;SDS011;8524;57.650;11.926;2023-04-25T05:11:45;5.93;;;5.00;;
16813;SDS011;8524;57.650;11.926;2023-04-25T05:14:12;5.97;;;4.80;;
16813;SDS011;8524;57.650;11.926;2023-04-25T05:16:39;5.97;;;5.00;;
16813;SDS011;8524;57.650;11.926;2023-04-25T05:19:06;6.30;;;5.10;;
16813;SDS011;8524;57.650;11.926;2023-04-25T05:21:33;5.57;;;4.90;;
16813;SDS011;8524;57.650;11.926;2023-04-25T05:24:01;7.93;;;5.23;;
16813;SDS011;8524;57.650;11.926;2023-04-25T05:26:29;5.47;;;4.50;;
16813;SDS011;8524;57.650;11.926;2023-04-25T05:28:56;7.90;;;4.70;;
16813;SDS011;8524;57.650;11.926;2023-04-25T05:31:23;4.37;;;3.83;;
16813;SDS011;8524;57.650;11.926;2023-04-25T05:33:50;4.77;;;4.03;;
16813;SDS011;8524;57.650;11.926;2023-04-25T05:36:18;4.20;;;3.57;;
16813;SDS011;8524;57.650;11.926;2023-04-25T05:38:45;6.57;;;4.47;;
16813;SDS011;8524;57.650;11.926;2023-04-25T05:41:13;4.83;;;3.63;;
16813;SDS011;8524;57.650;11.926;2023-04-25T05:43:40;6.00;;;3.90;;
16813;SDS011;8524;57.650;11.926;2023-04-25T05:46:12;4.07;;;3.57;;
16813;SDS011;8524;57.650;11.926;2023-04-25T05:48:39;4.37;;;3.77;;
16813;SDS011;8524;57.650;11.926;2023-04-25T05:51:06;5.13;;;3.47;;
16813;SDS011;8524;57.650;11.926;2023-04-25T05:53:33;4.17;;;3.70;;
16813;SDS011;8524;57.650;11.926;2023-04-25T05:56:00;4.60;;;3.43;;
16813;SDS011;8524;57.650;11.926;2023-04-25T05:58:29;7.27;;;4.90;;
16813;SDS011;8524;57.650;11.926;2023-04-25T06:00:56;5.97;;;3.80;;
16813;SDS011;8524;57.650;11.926;2023-04-25T06:03:24;4.97;;;3.07;;
16813;SDS011;8524;57.650;11.926;2023-04-25T06:05:51;7.17;;;3.73;;
16813;SDS011;8524;57.650;11.926;2023-04-25T06:08:18;6.13;;;3.53;;
16813;SDS011;8524;57.650;11.926;2023-04-25T06:10:45;5.97;;;3.50;;
16813;SDS011;8524;57.650;11.926;2023-04-25T06:13:12;7.27;;;3.53;;
16813;SDS011;8524;57.650;11.926;2023-04-25T06:15:41;7.83;;;3.17;;
16813;SDS011;8524;57.650;11.926;2023-04-25T06:18:09;8.63;;;3.07;;
16813;SDS011;8524;57.650;11.926;2023-04-25T06:20:36;4.43;;;2.83;;
16813;SDS011;8524;57.650;11.926;2023-04-25T06:23:03;5.27;;;2.80;;
16813;SDS011;8524;57.650;11.926;2023-04-25T06:25:30;8.07;;;3.10;;
16813;SDS011;8524;57.650;11.926;2023-04-25T06:27:57;5.97;;;2.60;;
16813;SDS011;8524;57.650;11.926;2023-04-25T06:30:24;4.03;;;2.40;;
16813;SDS011;8524;57.650;11.926;2023-04-25T06:32:53;5.57;;;2.90;;
16813;SDS011;8524;57.650;11.926;2023-04-25T06:35:20;5.57;;;2.40;;
16813;SDS011;8524;57.650;11.926;2023-04-25T06:37:47;5.67;;;2.37;;
16813;SDS011;8524;57.650;11.926;2023-04-25T06:40:14;5.87;;;2.50;;
16813;SDS011;8524;57.650;11.926;2023-04-25T06:42:42;4.43;;;2.10;;
16813;SDS011;8524;57.650;11.926;2023-04-25T06:45:10;5.80;;;2.10;;
16813;SDS011;8524;57.650;11.926;2023-04-25T06:47:38;4.03;;;1.87;;
16813;SDS011;8524;57.650;11.926;2023-04-25T06:50:07;5.97;;;1.87;;
16813;SDS011;8524;57.650;11.926;2023-04-25T06:52:36;4.10;;;1.97;;
16813;SDS011;8524;57.650;11.926;2023-04-25T06:55:03;2.33;;;1.37;;
16813;SDS011;8524;57.650;11.926;2023-04-25T06:57:30;2.77;;;1.37;;
16813;SDS011;8524;57.650;11.926;2023-04-25T06:59:57;3.57;;;1.33;;
16813;SDS011;8524;57.650;11.926;2023-04-25T07:02:24;4.53;;;1.70;;
16813;SDS011;8524;57.650;11.926;2023-04-25T07:04:51;2.80;;;1.37;;
16813;SDS011;8524;57.650;11.926;2023-04-25T07:07:22;4.60;;;1.50;;
16813;SDS011;8524;57.650;11.926;2023-04-25T07:09:49;2.47;;;1.47;;
16813;SDS011;8524;57.650;11.926;2023-04-25T07:12:17;3.30;;;1.40;;
16813;SDS011;8524;57.650;11.926;2023-04-25T07:14:44;4.90;;;1.20;;
16813;SDS011;8524;57.650;11.926;2023-04-25T07:17:11;2.47;;;1.00;;
16813;SDS011;8524;57.650;11.926;2023-04-25T07:19:38;3.27;;;0.90;;
16813;SDS011;8524;57.650;11.926;2023-04-25T07:22:06;1.87;;;0.97;;
16813;SDS011;8524;57.650;11.926;2023-04-25T07:24:34;2.17;;;0.70;;
16813;SDS011;8524;57.650;11.926;2023-04-25T07:27:01;2.13;;;0.73;;
16813;SDS011;8524;57.650;11.926;2023-04-25T07:29:29;3.60;;;0.90;;
16813;SDS011;8524;57.650;11.926;2023-04-25T07:31:56;2.80;;;0.90;;
16813;SDS011;8524;57.650;11.926;2023-04-25T07:34:24;2.03;;;0.90;;
16813;SDS011;8524;57.650;11.926;2023-04-25T07:36:51;1.33;;;0.90;;
16813;SDS011;8524;57.650;11.926;2023-04-25T07:39:18;1.53;;;0.80;;
16813;SDS011;8524;57.650;11.926;2023-04-25T07:41:47;2.50;;;0.93;;
16813;SDS011;8524;57.650;11.926;2023-04-25T07:44:14;1.77;;;1.00;;
16813;SDS011;8524;57.650;11.926;2023-04-25T07:46:41;1.93;;;0.90;;
16813;SDS011;8524;57.650;11.926;2023-04-25T07:49:08;2.07;;;0.70;;
16813;SDS011;8524;57.650;11.926;2023-04-25T07:51:36;2.33;;;0.90;;
16813;SDS011;8524;57.650;11.926;2023-04-25T07:54:03;1.33;;;0.87;;
16813;SDS011;8524;57.650;11.926;2023-04-25T07:56:30;1.37;;;0.60;;
16813;SDS011;8524;57.650;11.926;2023-04-25T07:58:59;1.33;;;0.80;;
16813;SDS011;8524;57.650;11.926;2023-04-25T08:01:26;1.88;;;0.90;;
16813;SDS011;8524;57.650;11.926;2023-04-25T08:03:53;1.93;;;0.87;;
16813;SDS011;8524;57.650;11.926;2023-04-25T08:06:20;3.30;;;1.23;;
16813;SDS011;8524;57.650;11.926;2023-04-25T08:08:47;1.80;;;1.03;;
16813;SDS011;8524;57.650;11.926;2023-04-25T08:11:14;1.53;;;0.80;;
16813;SDS011;8524;57.650;11.926;2023-04-25T08:13:41;1.03;;;0.80;;
16813;SDS011;8524;57.650;11.926;2023-04-25T08:16:10;2.17;;;0.80;;
16813;SDS011;8524;57.650;11.926;2023-04-25T08:18:37;4.40;;;0.93;;
16813;SDS011;8524;57.650;11.926;2023-04-25T08:21:04;1.57;;;1.00;;
16813;SDS011;8524;57.650;11.926;2023-04-25T08:23:31;2.47;;;1.00;;
16813;SDS011;8524;57.650;11.926;2023-04-25T08:25:58;1.90;;;0.70;;
16813;SDS011;8524;57.650;11.926;2023-04-25T08:28:26;1.63;;;0.80;;
16813;SDS011;8524;57.650;11.926;2023-04-25T08:30:52;1.43;;;0.90;;
16813;SDS011;8524;57.650;11.926;2023-04-25T08:33:21;0.90;;;0.80;;
16813;SDS011;8524;57.650;11.926;2023-04-25T08:35:48;1.20;;;0.80;;
16813;SDS011;8524;57.650;11.926;2023-04-25T08:38:16;1.83;;;0.80;;
16813;SDS011;8524;57.650;11.926;2023-04-25T08:40:44;1.80;;;0.80;;
16813;SDS011;8524;57.650;11.926;2023-04-25T08:43:18;3.33;;;0.90;;
16813;SDS011;8524;57.650;11.926;2023-04-25T08:45:45;1.87;;;0.60;;
16813;SDS011;8524;57.650;11.926;2023-04-25T08:48:14;2.60;;;1.00;;
16813;SDS011;8524;57.650;11.926;2023-04-25T08:50:45;1.63;;;0.80;;
16813;SDS011;8524;57.650;11.926;2023-04-25T08:53:16;1.30;;;0.90;;
16813;SDS011;8524;57.650;11.926;2023-04-25T08:55:46;1.53;;;0.80;;
16813;SDS011;8524;57.650;11.926;2023-04-25T08:58:16;0.80;;;0.60;;
16813;SDS011;8524;57.650;11.926;2023-04-25T09:00:45;2.00;;;0.70;;
16813;SDS011;8524;57.650;11.926;2023-04-25T09:03:12;1.97;;;0.77;;
16813;SDS011;8524;57.650;11.926;2023-04-25T09:05:40;1.37;;;0.70;;
16813;SDS011;8524;57.650;11.926;2023-04-25T09:08:09;1.00;;;0.90;;
16813;SDS011;8524;57.650;11.926;2023-04-25T09:10:36;1.30;;;0.80;;
16813;SDS011;8524;57.650;11.926;2023-04-25T09:13:05;1.70;;;0.70;;
16813;SDS011;8524;57.650;11.926;2023-04-25T09:15:46;2.00;;;0.80;;
16813;SDS011;8524;57.650;11.926;2023-04-25T09:18:21;3.77;;;0.90;;
16813;SDS011;8524;57.650;11.926;2023-04-25T09:20:51;1.63;;;0.73;;
16813;SDS011;8524;57.650;11.926;2023-04-25T09:23:20;2.73;;;0.73;;
16813;SDS011;8524;57.650;11.926;2023-04-25T09:25:48;3.27;;;0.80;;
16813;SDS011;8524;57.650;11.926;2023-04-25T09:28:18;0.80;;;0.77;;
16813;SDS011;8524;57.650;11.926;2023-04-25T09:30:53;0.83;;;0.70;;
16813;SDS011;8524;57.650;11.926;2023-04-25T09:33:26;1.27;;;0.50;;
16813;SDS011;8524;57.650;11.926;2023-04-25T09:36:01;3.47;;;0.90;;
16813;SDS011;8524;57.650;11.926;2023-04-25T09:38:31;2.27;;;0.90;;
16813;SDS011;8524;57.650;11.926;2023-04-25T09:41:05;2.47;;;0.80;;
16813;SDS011;8524;57.650;11.926;2023-04-25T09:43:32;3.90;;;1.00;;
16813;SDS011;8524;57.650;11.926;2023-04-25T09:46:00;0.77;;;0.60;;
16813;SDS011;8524;57.650;11.926;2023-04-25T09:48:27;1.17;;;0.70;;
16813;SDS011;8524;57.650;11.926;2023-04-25T09:51:05;0.97;;;0.60;;
16813;SDS011;8524;57.650;11.926;2023-04-25T09:53:35;3.70;;;0.83;;
16813;SDS011;8524;57.650;11.926;2023-04-25T09:56:03;1.70;;;0.73;;
16813;SDS011;8524;57.650;11.926;2023-04-25T09:58:31;0.80;;;0.73;;
16813;SDS011;8524;57.650;11.926;2023-04-25T10:00:59;1.33;;;0.60;;
16813;SDS011;8524;57.650;11.926;2023-04-25T10:03:29;1.57;;;0.60;;
16813;SDS011;8524;57.650;11.926;2023-04-25T10:05:58;1.00;;;0.80;;
16813;SDS011;8524;57.650;11.926;2023-04-25T10:08:28;1.20;;;0.80;;
16813;SDS011;8524;57.650;11.926;2023-04-25T10:11:01;1.03;;;0.80;;
16813;SDS011;8524;57.650;11.926;2023-04-25T10:13:29;3.13;;;1.00;;
16813;SDS011;8524;57.650;11.926;2023-04-25T10:15:57;2.17;;;0.97;;
16813;SDS011;8524;57.650;11.926;2023-04-25T10:18:25;2.60;;;0.80;;
16813;SDS011;8524;57.650;11.926;2023-04-25T10:20:53;2.87;;;0.80;;
16813;SDS011;8524;57.650;11.926;2023-04-25T10:23:22;1.70;;;0.70;;
16813;SDS011;8524;57.650;11.926;2023-04-25T10:25:50;3.07;;;0.73;;
16813;SDS011;8524;57.650;11.926;2023-04-25T10:28:20;0.97;;;0.70;;
16813;SDS011;8524;57.650;11.926;2023-04-25T10:30:57;1.23;;;0.80;;
16813;SDS011;8524;57.650;11.926;2023-04-25T10:33:34;2.73;;;0.80;;
16813;SDS011;8524;57.650;11.926;2023-04-25T10:36:09;2.67;;;0.80;;
16813;SDS011;8524;57.650;11.926;2023-04-25T10:38:38;1.90;;;1.10;;
16813;SDS011;8524;57.650;11.926;2023-04-25T10:41:06;1.47;;;0.90;;
16813;SDS011;8524;57.650;11.926;2023-04-25T10:43:39;2.07;;;0.90;;
16813;SDS011;8524;57.650;11.926;2023-04-25T10:46:17;2.20;;;0.73;;
16813;SDS011;8524;57.650;11.926;2023-04-25T10:48:49;2.40;;;0.80;;
16813;SDS011;8524;57.650;11.926;2023-04-25T10:51:21;2.30;;;1.10;;
16813;SDS011;8524;57.650;11.926;2023-04-25T10:53:57;1.87;;;0.80;;
16813;SDS011;8524;57.650;11.926;2023-04-25T10:56:25;1.70;;;0.90;;
16813;SDS011;8524;57.650;11.926;2023-04-25T10:59:04;1.90;;;1.00;;
16813;SDS011;8524;57.650;11.926;2023-04-25T11:01:37;1.53;;;1.00;;
16813;SDS011;8524;57.650;11.926;2023-04-25T11:04:05;2.30;;;1.10;;
16813;SDS011;8524;57.650;11.926;2023-04-25T11:06:36;2.67;;;1.00;;
16813;SDS011;8524;57.650;11.926;2023-04-25T11:09:13;1.10;;;0.70;;
16813;SDS011;8524;57.650;11.926;2023-04-25T11:11:40;0.93;;;0.80;;
16813;SDS011;8524;57.650;11.926;2023-04-25T11:14:09;1.67;;;0.90;;
16813;SDS011;8524;57.650;11.926;2023-04-25T11:16:36;1.37;;;0.87;;
16813;SDS011;8524;57.650;11.926;2023-04-25T11:19:03;3.40;;;1.10;;
16813;SDS011;8524;57.650;11.926;2023-04-25T11:21:30;2.10;;;0.90;;
16813;SDS011;8524;57.650;11.926;2023-04-25T11:23:58;1.40;;;1.03;;
16813;SDS011;8524;57.650;11.926;2023-04-25T11:26:27;2.30;;;1.10;;
16813;SDS011;8524;57.650;11.926;2023-04-25T11:28:59;1.30;;;1.10;;
16813;SDS011;8524;57.650;11.926;2023-04-25T11:31:28;2.60;;;1.33;;
16813;SDS011;8524;57.650;11.926;2023-04-25T11:33:56;1.43;;;1.20;;
16813;SDS011;8524;57.650;11.926;2023-04-25T11:36:24;2.53;;;1.13;;
16813;SDS011;8524;57.650;11.926;2023-04-25T11:38:51;1.60;;;1.30;;
16813;SDS011;8524;57.650;11.926;2023-04-25T11:41:19;1.20;;;0.90;;
16813;SDS011;8524;57.650;11.926;2023-04-25T11:43:47;1.60;;;1.10;;
16813;SDS011;8524;57.650;11.926;2023-04-25T11:46:16;2.23;;;1.20;;
16813;SDS011;8524;57.650;11.926;2023-04-25T11:48:46;2.13;;;1.50;;
16813;SDS011;8524;57.650;11.926;2023-04-25T11:51:15;3.30;;;1.80;;
16813;SDS011;8524;57.650;11.926;2023-04-25T11:53:44;1.57;;;1.20;;
16813;SDS011;8524;57.650;11.926;2023-04-25T11:56:11;1.90;;;1.17;;
16813;SDS011;8524;57.650;11.926;2023-04-25T11:58:54;2.23;;;1.30;;
16813;SDS011;8524;57.650;11.926;2023-04-25T12:01:26;1.47;;;1.00;;
16813;SDS011;8524;57.650;11.926;2023-04-25T12:03:55;3.23;;;1.30;;
16813;SDS011;8524;57.650;11.926;2023-04-25T12:06:25;2.07;;;1.00;;
16813;SDS011;8524;57.650;11.926;2023-04-25T12:09:03;1.40;;;0.83;;
16813;SDS011;8524;57.650;11.926;2023-04-25T12:11:31;4.33;;;1.10;;
16813;SDS011;8524;57.650;11.926;2023-04-25T12:14:02;1.37;;;0.73;;
16813;SDS011;8524;57.650;11.926;2023-04-25T12:16:30;1.80;;;0.93;;
16813;SDS011;8524;57.650;11.926;2023-04-25T12:19:08;4.10;;;1.10;;
16813;SDS011;8524;57.650;11.926;2023-04-25T12:21:35;1.67;;;0.97;;
16813;SDS011;8524;57.650;11.926;2023-04-25T12:24:12;1.07;;;0.90;;
16813;SDS011;8524;57.650;11.926;2023-04-25T12:26:50;1.57;;;0.70;;
16813;SDS011;8524;57.650;11.926;2023-04-25T12:29:18;1.00;;;0.90;;
16813;SDS011;8524;57.650;11.926;2023-04-25T12:31:46;1.73;;;1.00;;
16813;SDS011;8524;57.650;11.926;2023-04-25T12:34:15;2.00;;;0.90;;
16813;SDS011;8524;57.650;11.926;2023-04-25T12:36:42;2.87;;;1.60;;
16813;SDS011;8524;57.650;11.926;2023-04-25T12:39:13;1.43;;;1.00;;
16813;SDS011;8524;57.650;11.926;2023-04-25T12:41:42;1.20;;;0.90;;
16813;SDS011;8524;57.650;11.926;2023-04-25T12:44:09;3.63;;;1.30;;
16813;SDS011;8524;57.650;11.926;2023-04-25T12:46:36;1.27;;;0.77;;
16813;SDS011;8524;57.650;11.926;2023-04-25T12:49:04;3.60;;;0.97;;
16813;SDS011;8524;57.650;11.926;2023-04-25T12:51:34;1.93;;;0.87;;
16813;SDS011;8524;57.650;11.926;2023-04-25T12:54:01;1.40;;;0.90;;
16813;SDS011;8524;57.650;11.926;2023-04-25T12:56:30;1.87;;;0.90;;
16813;SDS011;8524;57.650;11.926;2023-04-25T12:58:57;2.93;;;0.70;;
16813;SDS011;8524;57.650;11.926;2023-04-25T13:01:24;10.80;;;2.23;;
16813;SDS011;8524;57.650;11.926;2023-04-25T13:03:51;2.60;;;1.20;;
16813;SDS011;8524;57.650;11.926;2023-04-25T13:06:19;3.83;;;1.03;;
16813;SDS011;8524;57.650;11.926;2023-04-25T13:08:48;1.63;;;0.80;;
16813;SDS011;8524;57.650;11.926;2023-04-25T13:11:15;3.50;;;1.13;;
16813;SDS011;8524;57.650;11.926;2023-04-25T13:13:42;1.70;;;1.07;;
16813;SDS011;8524;57.650;11.926;2023-04-25T13:16:10;3.40;;;1.00;;
16813;SDS011;8524;57.650;11.926;2023-04-25T13:18:39;8.57;;;1.50;;
16813;SDS011;8524;57.650;11.926;2023-04-25T13:21:07;1.90;;;0.80;;
16813;SDS011;8524;57.650;11.926;2023-04-25T13:23:39;3.57;;;0.90;;
16813;SDS011;8524;57.650;11.926;2023-04-25T13:26:09;2.20;;;0.80;;
16813;SDS011;8524;57.650;11.926;2023-04-25T13:28:36;3.93;;;0.90;;
16813;SDS011;8524;57.650;11.926;2023-04-25T13:31:03;6.63;;;1.27;;
16813;SDS011;8524;57.650;11.926;2023-04-25T13:33:31;2.43;;;0.80;;
16813;SDS011;8524;57.650;11.926;2023-04-25T13:36:00;1.23;;;0.90;;
16813;SDS011;8524;57.650;11.926;2023-04-25T13:38:27;1.37;;;0.90;;
16813;SDS011;8524;57.650;11.926;2023-04-25T13:40:55;1.20;;;0.60;;
16813;SDS011;8524;57.650;11.926;2023-04-25T13:43:23;0.77;;;0.77;;
16813;SDS011;8524;57.650;11.926;2023-04-25T13:45:50;1.27;;;0.70;;
16813;SDS011;8524;57.650;11.926;2023-04-25T13:48:17;1.17;;;0.93;;
16813;SDS011;8524;57.650;11.926;2023-04-25T13:50:45;2.43;;;0.90;;
16813;SDS011;8524;57.650;11.926;2023-04-25T13:53:12;0.90;;;0.90;;
16813;SDS011;8524;57.650;11.926;2023-04-25T13:55:39;2.00;;;0.80;;
16813;SDS011;8524;57.650;11.926;2023-04-25T13:58:06;0.80;;;0.80;;
16813;SDS011;8524;57.650;11.926;2023-04-25T14:00:36;1.80;;;0.90;;
16813;SDS011;8524;57.650;11.926;2023-04-25T14:03:05;0.70;;;0.70;;
16813;SDS011;8524;57.650;11.926;2023-04-25T14:05:33;2.97;;;1.10;;
16813;SDS011;8524;57.650;11.926;2023-04-25T14:08:05;2.50;;;1.30;;
16813;SDS011;8524;57.650;11.926;2023-04-25T14:10:33;0.80;;;0.73;;
16813;SDS011;8524;57.650;11.926;2023-04-25T14:13:00;0.70;;;0.70;;
16813;SDS011;8524;57.650;11.926;2023-04-25T14:15:28;0.90;;;0.67;;
16813;SDS011;8524;57.650;11.926;2023-04-25T14:17:57;0.97;;;0.80;;
16813;SDS011;8524;57.650;11.926;2023-04-25T14:20:25;0.83;;;0.80;;
16813;SDS011;8524;57.650;11.926;2023-04-25T14:22:52;1.70;;;0.70;;
16813;SDS011;8524;57.650;11.926;2023-04-25T14:25:21;1.17;;;0.80;;
16813;SDS011;8524;57.650;11.926;2023-04-25T14:27:48;3.30;;;1.10;;
16813;SDS011;8524;57.650;11.926;2023-04-25T14:30:16;1.83;;;0.90;;
16813;SDS011;8524;57.650;11.926;2023-04-25T14:32:43;1.30;;;0.80;;
16813;SDS011;8524;57.650;11.926;2023-04-25T14:35:12;2.33;;;1.00;;
16813;SDS011;8524;57.650;11.926;2023-04-25T14:37:40;0.90;;;0.90;;
16813;SDS011;8524;57.650;11.926;2023-04-25T14:40:07;2.03;;;1.10;;
16813;SDS011;8524;57.650;11.926;2023-04-25T14:42:37;1.53;;;1.00;;
16813;SDS011;8524;57.650;11.926;2023-04-25T14:45:05;0.70;;;0.60;;
16813;SDS011;8524;57.650;11.926;2023-04-25T14:47:34;1.23;;;0.87;;